Decoded Metar for PACM (SCAMMON BAY in AK, USA) (IATA:SCM) | Meteo·Mobile Aviation Weather
aviador You're here:

PACM Decoded Metar

SCAMMON BAY in AK, USA
Report Time2019-05-19 17:56:00
UTC Time2019-05-19 18:32:20
Flight Rules mvfr MVFR
Wind320° at 03 kt
W.Decomp.*RWY 28: 2.6 kt HW 1.4 kt RCW
Visibility9999 m
Phenomena:N/A
Clouds:Overcast 017 Hf
Expected CloudBase > 1,200 ft AGL from Temp-Dew spread
Ceiling1,700 ft
Temp04°C (ISA -11)
Dew Point01°C (81% RH)
AAT1.1°C
QNH1011 hPa
Density Alt-1,158 ft
Elevation13 ft
Report Wrong Elevation
Raw Report
PACM 191756Z AUTO 32003KT 10SM OVC017 04/01 A2986 RMK AO2 SLP106
T00440011 10044 20028 53001=

Extra information for PACM:More info

Metar Taf Metar & Taf Last 4 Metars F.Rules Stats Wind Profile Meteogram Temp Stats Airport Information Weather charts Add Link Nearby VenuesMetar ALERT Operation Metar Decoded Social comments

AIRNAV info for PACM